KDPG/DPG METAR and TAF weather

Enter ICAO airport designator
Station Type Date Time Source
KDPG METAR 2019/08/20 22:55 UTC NOAA

KDPG 202255Z VRB05KT 45SM FEW150 36/M07 A3000 RMK SLP109 T03621068 LAST


Station Type Date Time Source
KDPG Decoded METAR 2019/08/20 22:55 UTC NOAA

Station name not available
Aug 20, 2019 - 06:55 PM EDT / 2019.08.20 2255 UTC
Wind: Variable at 6 MPH (5 KT):0
Visibility: 45 mile(s):0
Sky conditions: mostly clear
Temperature: 97.2 F (36.2 C)
Dew Point: 19.8 F (-6.8 C)
Relative Humidity: 6%
Pressure (altimeter): 30 in. Hg (1015 hPa)
ob: KDPG 202255Z VRB05KT 45SM FEW150 36/M07 A3000 RMK SLP109 T03621068 LAST
cycle: 23

Station Type Date Time Source
KDPG TAF UTC NOAA

Error!

Example: see airport list